sensor_id;sensor_type;location;lat;lon;timestamp;P1;durP1;ratioP1;P2;durP2;ratioP2
16624;SDS011;8426;48.496;9.098;2023-04-25T00:00:01;2.50;;;1.88;;
16624;SDS011;8426;48.496;9.098;2023-04-25T00:05:09;4.30;;;1.73;;
16624;SDS011;8426;48.496;9.098;2023-04-25T00:10:14;6.40;;;2.15;;
16624;SDS011;8426;48.496;9.098;2023-04-25T00:15:20;3.33;;;2.00;;
16624;SDS011;8426;48.496;9.098;2023-04-25T00:20:24;3.90;;;2.00;;
16624;SDS011;8426;48.496;9.098;2023-04-25T00:25:29;6.50;;;2.13;;
16624;SDS011;8426;48.496;9.098;2023-04-25T00:30:41;3.20;;;1.58;;
16624;SDS011;8426;48.496;9.098;2023-04-25T00:35:51;2.63;;;1.90;;
16624;SDS011;8426;48.496;9.098;2023-04-25T00:40:57;3.75;;;1.67;;
16624;SDS011;8426;48.496;9.098;2023-04-25T00:46:02;3.40;;;1.77;;
16624;SDS011;8426;48.496;9.098;2023-04-25T00:51:07;4.90;;;1.70;;
16624;SDS011;8426;48.496;9.098;2023-04-25T00:56:14;4.88;;;1.85;;
16624;SDS011;8426;48.496;9.098;2023-04-25T01:01:22;5.35;;;1.80;;
16624;SDS011;8426;48.496;9.098;2023-04-25T01:06:25;2.80;;;1.75;;
16624;SDS011;8426;48.496;9.098;2023-04-25T01:11:37;5.47;;;1.95;;
16624;SDS011;8426;48.496;9.098;2023-04-25T01:16:43;3.78;;;2.00;;
16624;SDS011;8426;48.496;9.098;2023-04-25T01:21:55;3.17;;;1.60;;
16624;SDS011;8426;48.496;9.098;2023-04-25T01:27:03;6.22;;;2.15;;
16624;SDS011;8426;48.496;9.098;2023-04-25T01:32:08;2.35;;;1.58;;
16624;SDS011;8426;48.496;9.098;2023-04-25T01:37:15;5.13;;;2.13;;
16624;SDS011;8426;48.496;9.098;2023-04-25T01:42:22;3.20;;;2.05;;
16624;SDS011;8426;48.496;9.098;2023-04-25T01:47:28;10.85;;;2.10;;
16624;SDS011;8426;48.496;9.098;2023-04-25T01:52:35;4.35;;;1.77;;
16624;SDS011;8426;48.496;9.098;2023-04-25T01:57:38;7.90;;;2.05;;
16624;SDS011;8426;48.496;9.098;2023-04-25T02:02:57;3.28;;;1.92;;
16624;SDS011;8426;48.496;9.098;2023-04-25T02:08:02;3.97;;;1.73;;
16624;SDS011;8426;48.496;9.098;2023-04-25T02:13:08;2.53;;;1.63;;
16624;SDS011;8426;48.496;9.098;2023-04-25T02:18:12;4.15;;;1.80;;
16624;SDS011;8426;48.496;9.098;2023-04-25T02:23:19;3.22;;;2.00;;
16624;SDS011;8426;48.496;9.098;2023-04-25T02:28:23;5.22;;;1.70;;
16624;SDS011;8426;48.496;9.098;2023-04-25T02:33:37;2.72;;;1.50;;
16624;SDS011;8426;48.496;9.098;2023-04-25T02:38:46;3.33;;;1.55;;
16624;SDS011;8426;48.496;9.098;2023-04-25T02:43:51;4.28;;;1.45;;
16624;SDS011;8426;48.496;9.098;2023-04-25T02:48:55;6.22;;;1.88;;
16624;SDS011;8426;48.496;9.098;2023-04-25T02:54:02;9.93;;;1.95;;
16624;SDS011;8426;48.496;9.098;2023-04-25T02:59:08;4.78;;;1.92;;
16624;SDS011;8426;48.496;9.098;2023-04-25T03:04:15;2.85;;;1.73;;
16624;SDS011;8426;48.496;9.098;2023-04-25T03:09:22;2.03;;;1.20;;
16624;SDS011;8426;48.496;9.098;2023-04-25T03:14:26;4.88;;;1.85;;
16624;SDS011;8426;48.496;9.098;2023-04-25T03:24:41;2.63;;;1.50;;
16624;SDS011;8426;48.496;9.098;2023-04-25T03:29:47;5.13;;;1.85;;
16624;SDS011;8426;48.496;9.098;2023-04-25T03:34:52;2.97;;;1.58;;
16624;SDS011;8426;48.496;9.098;2023-04-25T03:39:57;2.55;;;1.73;;
16624;SDS011;8426;48.496;9.098;2023-04-25T03:45:01;3.22;;;1.83;;
16624;SDS011;8426;48.496;9.098;2023-04-25T03:50:11;4.90;;;1.70;;
16624;SDS011;8426;48.496;9.098;2023-04-25T03:55:22;2.58;;;1.50;;
16624;SDS011;8426;48.496;9.098;2023-04-25T04:00:27;2.70;;;1.77;;
16624;SDS011;8426;48.496;9.098;2023-04-25T04:05:34;3.50;;;1.73;;
16624;SDS011;8426;48.496;9.098;2023-04-25T04:10:41;5.30;;;1.88;;
16624;SDS011;8426;48.496;9.098;2023-04-25T04:15:46;3.83;;;1.70;;
16624;SDS011;8426;48.496;9.098;2023-04-25T04:20:51;3.47;;;1.80;;
16624;SDS011;8426;48.496;9.098;2023-04-25T04:25:56;3.78;;;1.90;;
16624;SDS011;8426;48.496;9.098;2023-04-25T04:31:08;3.55;;;2.00;;
16624;SDS011;8426;48.496;9.098;2023-04-25T04:36:14;3.45;;;1.60;;
16624;SDS011;8426;48.496;9.098;2023-04-25T04:41:21;3.55;;;1.45;;
16624;SDS011;8426;48.496;9.098;2023-04-25T04:46:27;6.38;;;1.90;;
16624;SDS011;8426;48.496;9.098;2023-04-25T04:51:33;5.03;;;1.83;;
16624;SDS011;8426;48.496;9.098;2023-04-25T04:56:39;2.92;;;1.30;;
16624;SDS011;8426;48.496;9.098;2023-04-25T05:02:00;6.53;;;2.00;;
16624;SDS011;8426;48.496;9.098;2023-04-25T05:07:05;3.55;;;1.55;;
16624;SDS011;8426;48.496;9.098;2023-04-25T05:12:10;3.08;;;1.92;;
16624;SDS011;8426;48.496;9.098;2023-04-25T05:17:22;5.28;;;1.92;;
16624;SDS011;8426;48.496;9.098;2023-04-25T05:22:27;5.18;;;1.90;;
16624;SDS011;8426;48.496;9.098;2023-04-25T05:27:33;2.63;;;1.50;;
16624;SDS011;8426;48.496;9.098;2023-04-25T05:32:46;4.32;;;1.52;;
16624;SDS011;8426;48.496;9.098;2023-04-25T05:37:55;4.85;;;1.88;;
16624;SDS011;8426;48.496;9.098;2023-04-25T05:43:00;2.83;;;1.35;;
16624;SDS011;8426;48.496;9.098;2023-04-25T05:48:10;4.15;;;1.42;;
16624;SDS011;8426;48.496;9.098;2023-04-25T05:53:13;9.02;;;1.52;;
16624;SDS011;8426;48.496;9.098;2023-04-25T05:58:20;3.58;;;1.15;;
16624;SDS011;8426;48.496;9.098;2023-04-25T06:03:26;6.95;;;1.33;;
16624;SDS011;8426;48.496;9.098;2023-04-25T06:08:33;6.22;;;1.58;;
16624;SDS011;8426;48.496;9.098;2023-04-25T06:13:38;4.93;;;1.35;;
16624;SDS011;8426;48.496;9.098;2023-04-25T06:18:43;4.80;;;1.40;;
16624;SDS011;8426;48.496;9.098;2023-04-25T06:23:47;3.42;;;1.35;;
16624;SDS011;8426;48.496;9.098;2023-04-25T06:28:52;1.67;;;1.20;;
16624;SDS011;8426;48.496;9.098;2023-04-25T06:33:57;3.38;;;1.40;;
16624;SDS011;8426;48.496;9.098;2023-04-25T06:39:00;2.75;;;1.25;;
16624;SDS011;8426;48.496;9.098;2023-04-25T06:44:08;1.42;;;1.08;;
16624;SDS011;8426;48.496;9.098;2023-04-25T06:49:16;2.80;;;1.40;;
16624;SDS011;8426;48.496;9.098;2023-04-25T06:54:21;4.85;;;1.27;;
16624;SDS011;8426;48.496;9.098;2023-04-25T06:59:27;2.45;;;1.20;;
16624;SDS011;8426;48.496;9.098;2023-04-25T07:10:06;3.90;;;1.67;;
16624;SDS011;8426;48.496;9.098;2023-04-25T07:15:16;3.83;;;1.38;;
16624;SDS011;8426;48.496;9.098;2023-04-25T07:20:20;10.75;;;2.58;;
16624;SDS011;8426;48.496;9.098;2023-04-25T07:25:25;2.22;;;1.50;;
16624;SDS011;8426;48.496;9.098;2023-04-25T07:30:33;1.80;;;1.17;;
16624;SDS011;8426;48.496;9.098;2023-04-25T07:35:40;6.25;;;1.85;;
16624;SDS011;8426;48.496;9.098;2023-04-25T07:40:43;1.75;;;1.30;;
16624;SDS011;8426;48.496;9.098;2023-04-25T07:45:49;3.75;;;1.50;;
16624;SDS011;8426;48.496;9.098;2023-04-25T07:50:53;2.17;;;1.48;;
16624;SDS011;8426;48.496;9.098;2023-04-25T07:55:58;5.28;;;1.45;;
16624;SDS011;8426;48.496;9.098;2023-04-25T08:01:06;2.25;;;1.33;;
16624;SDS011;8426;48.496;9.098;2023-04-25T08:06:10;2.45;;;1.40;;
16624;SDS011;8426;48.496;9.098;2023-04-25T08:11:16;7.15;;;1.48;;
16624;SDS011;8426;48.496;9.098;2023-04-25T08:16:21;2.28;;;1.45;;
16624;SDS011;8426;48.496;9.098;2023-04-25T08:21:24;7.88;;;2.03;;
16624;SDS011;8426;48.496;9.098;2023-04-25T08:26:30;5.70;;;1.88;;
16624;SDS011;8426;48.496;9.098;2023-04-25T08:31:35;5.70;;;1.70;;
16624;SDS011;8426;48.496;9.098;2023-04-25T08:36:44;3.65;;;1.80;;
16624;SDS011;8426;48.496;9.098;2023-04-25T08:41:47;5.47;;;2.22;;
16624;SDS011;8426;48.496;9.098;2023-04-25T08:46:54;2.22;;;1.35;;
16624;SDS011;8426;48.496;9.098;2023-04-25T08:51:59;3.45;;;1.58;;
16624;SDS011;8426;48.496;9.098;2023-04-25T08:57:03;2.75;;;1.52;;
16624;SDS011;8426;48.496;9.098;2023-04-25T09:02:11;1.55;;;0.93;;
16624;SDS011;8426;48.496;9.098;2023-04-25T09:07:22;2.53;;;1.25;;
16624;SDS011;8426;48.496;9.098;2023-04-25T09:12:28;3.10;;;1.70;;
16624;SDS011;8426;48.496;9.098;2023-04-25T09:17:33;3.17;;;1.20;;
16624;SDS011;8426;48.496;9.098;2023-04-25T09:22:41;1.67;;;1.10;;
16624;SDS011;8426;48.496;9.098;2023-04-25T09:27:51;0.95;;;0.90;;
16624;SDS011;8426;48.496;9.098;2023-04-25T09:32:59;2.17;;;1.13;;
16624;SDS011;8426;48.496;9.098;2023-04-25T09:38:10;2.72;;;1.25;;
16624;SDS011;8426;48.496;9.098;2023-04-25T09:43:18;4.28;;;1.80;;
16624;SDS011;8426;48.496;9.098;2023-04-25T09:48:31;3.35;;;1.88;;
16624;SDS011;8426;48.496;9.098;2023-04-25T09:53:39;2.75;;;1.27;;
16624;SDS011;8426;48.496;9.098;2023-04-25T09:58:44;3.85;;;1.48;;
16624;SDS011;8426;48.496;9.098;2023-04-25T10:03:51;1.92;;;1.65;;
16624;SDS011;8426;48.496;9.098;2023-04-25T10:09:04;2.05;;;1.05;;
16624;SDS011;8426;48.496;9.098;2023-04-25T10:14:33;1.02;;;0.80;;
16624;SDS011;8426;48.496;9.098;2023-04-25T10:19:44;0.85;;;0.63;;
16624;SDS011;8426;48.496;9.098;2023-04-25T10:24:57;0.30;;;0.30;;
16624;SDS011;8426;48.496;9.098;2023-04-25T10:30:12;0.40;;;0.40;;
16624;SDS011;8426;48.496;9.098;2023-04-25T10:35:24;0.60;;;0.40;;
16624;SDS011;8426;48.496;9.098;2023-04-25T10:40:30;0.50;;;0.50;;
16624;SDS011;8426;48.496;9.098;2023-04-25T10:45:44;2.80;;;0.40;;
16624;SDS011;8426;48.496;9.098;2023-04-25T10:51:08;0.52;;;0.40;;
16624;SDS011;8426;48.496;9.098;2023-04-25T10:56:17;0.38;;;0.38;;
16624;SDS011;8426;48.496;9.098;2023-04-25T11:01:24;0.75;;;0.30;;
16624;SDS011;8426;48.496;9.098;2023-04-25T11:06:32;0.35;;;0.30;;
16624;SDS011;8426;48.496;9.098;2023-04-25T11:11:53;0.60;;;0.50;;
16624;SDS011;8426;48.496;9.098;2023-04-25T11:17:01;0.70;;;0.40;;
16624;SDS011;8426;48.496;9.098;2023-04-25T11:22:10;1.70;;;0.50;;
16624;SDS011;8426;48.496;9.098;2023-04-25T11:27:16;0.60;;;0.60;;
16624;SDS011;8426;48.496;9.098;2023-04-25T11:32:24;0.50;;;0.40;;
16624;SDS011;8426;48.496;9.098;2023-04-25T11:37:29;0.30;;;0.30;;
16624;SDS011;8426;48.496;9.098;2023-04-25T11:42:56;0.30;;;0.30;;
16624;SDS011;8426;48.496;9.098;2023-04-25T11:48:03;0.60;;;0.40;;
16624;SDS011;8426;48.496;9.098;2023-04-25T11:53:09;0.80;;;0.50;;
16624;SDS011;8426;48.496;9.098;2023-04-25T11:58:13;0.63;;;0.43;;
16624;SDS011;8426;48.496;9.098;2023-04-25T12:03:20;0.55;;;0.30;;
16624;SDS011;8426;48.496;9.098;2023-04-25T12:08:29;0.30;;;0.30;;
16624;SDS011;8426;48.496;9.098;2023-04-25T12:13:34;0.35;;;0.30;;
16624;SDS011;8426;48.496;9.098;2023-04-25T12:18:38;0.43;;;0.30;;
16624;SDS011;8426;48.496;9.098;2023-04-25T12:23:44;0.40;;;0.30;;
16624;SDS011;8426;48.496;9.098;2023-04-25T12:28:49;0.70;;;0.50;;
16624;SDS011;8426;48.496;9.098;2023-04-25T12:33:54;0.50;;;0.35;;
16624;SDS011;8426;48.496;9.098;2023-04-25T12:39:00;0.95;;;0.50;;
16624;SDS011;8426;48.496;9.098;2023-04-25T12:44:09;0.30;;;0.30;;
16624;SDS011;8426;48.496;9.098;2023-04-25T12:49:16;0.40;;;0.30;;
16624;SDS011;8426;48.496;9.098;2023-04-25T12:54:23;1.42;;;0.30;;
16624;SDS011;8426;48.496;9.098;2023-04-25T12:59:27;2.03;;;0.40;;
16624;SDS011;8426;48.496;9.098;2023-04-25T13:04:36;0.32;;;0.30;;
16624;SDS011;8426;48.496;9.098;2023-04-25T13:09:41;0.73;;;0.40;;
16624;SDS011;8426;48.496;9.098;2023-04-25T13:15:09;0.70;;;0.50;;
16624;SDS011;8426;48.496;9.098;2023-04-25T13:20:13;0.80;;;0.40;;
16624;SDS011;8426;48.496;9.098;2023-04-25T13:25:22;1.23;;;0.90;;
16624;SDS011;8426;48.496;9.098;2023-04-25T13:30:27;2.88;;;1.63;;
16624;SDS011;8426;48.496;9.098;2023-04-25T13:35:32;0.95;;;0.50;;
16624;SDS011;8426;48.496;9.098;2023-04-25T13:40:38;5.55;;;1.73;;
16624;SDS011;8426;48.496;9.098;2023-04-25T13:45:43;0.98;;;0.70;;
16624;SDS011;8426;48.496;9.098;2023-04-25T13:50:47;0.80;;;0.65;;
16624;SDS011;8426;48.496;9.098;2023-04-25T13:55:53;2.55;;;1.20;;
16624;SDS011;8426;48.496;9.098;2023-04-25T14:00:57;0.90;;;0.80;;
16624;SDS011;8426;48.496;9.098;2023-04-25T14:06:01;2.70;;;1.08;;
16624;SDS011;8426;48.496;9.098;2023-04-25T14:11:07;0.93;;;0.80;;
16624;SDS011;8426;48.496;9.098;2023-04-25T14:16:12;1.88;;;1.02;;
16624;SDS011;8426;48.496;9.098;2023-04-25T14:21:18;1.73;;;1.27;;
16624;SDS011;8426;48.496;9.098;2023-04-25T14:26:23;2.17;;;1.27;;
16624;SDS011;8426;48.496;9.098;2023-04-25T14:31:27;2.90;;;1.60;;
16624;SDS011;8426;48.496;9.098;2023-04-25T14:36:30;5.30;;;1.70;;
16624;SDS011;8426;48.496;9.098;2023-04-25T14:41:37;4.32;;;2.15;;
16624;SDS011;8426;48.496;9.098;2023-04-25T14:46:41;3.67;;;1.90;;
16624;SDS011;8426;48.496;9.098;2023-04-25T14:51:54;3.55;;;2.10;;
16624;SDS011;8426;48.496;9.098;2023-04-25T14:57:00;3.47;;;2.17;;
16624;SDS011;8426;48.496;9.098;2023-04-25T15:02:06;3.67;;;2.22;;
16624;SDS011;8426;48.496;9.098;2023-04-25T15:07:10;5.40;;;2.83;;
16624;SDS011;8426;48.496;9.098;2023-04-25T15:12:20;5.93;;;2.85;;
16624;SDS011;8426;48.496;9.098;2023-04-25T15:17:24;3.30;;;2.28;;
16624;SDS011;8426;48.496;9.098;2023-04-25T15:22:32;3.58;;;2.20;;
16624;SDS011;8426;48.496;9.098;2023-04-25T15:27:39;2.92;;;2.25;;
16624;SDS011;8426;48.496;9.098;2023-04-25T15:32:45;2.97;;;2.28;;
16624;SDS011;8426;48.496;9.098;2023-04-25T15:37:49;2.80;;;2.00;;
16624;SDS011;8426;48.496;9.098;2023-04-25T15:42:54;3.20;;;2.17;;
16624;SDS011;8426;48.496;9.098;2023-04-25T15:47:57;4.93;;;2.47;;
16624;SDS011;8426;48.496;9.098;2023-04-25T15:53:26;3.65;;;2.47;;
16624;SDS011;8426;48.496;9.098;2023-04-25T15:58:31;3.50;;;2.20;;
16624;SDS011;8426;48.496;9.098;2023-04-25T16:03:34;3.35;;;2.20;;
16624;SDS011;8426;48.496;9.098;2023-04-25T16:08:38;8.98;;;2.03;;
16624;SDS011;8426;48.496;9.098;2023-04-25T16:13:45;17.50;;;2.35;;
16624;SDS011;8426;48.496;9.098;2023-04-25T16:18:49;3.22;;;2.05;;
16624;SDS011;8426;48.496;9.098;2023-04-25T16:23:52;5.57;;;2.45;;
16624;SDS011;8426;48.496;9.098;2023-04-25T16:29:01;2.97;;;1.85;;
16624;SDS011;8426;48.496;9.098;2023-04-25T16:34:05;3.65;;;1.90;;
16624;SDS011;8426;48.496;9.098;2023-04-25T16:39:09;2.28;;;1.58;;
16624;SDS011;8426;48.496;9.098;2023-04-25T16:44:14;3.38;;;1.40;;
16624;SDS011;8426;48.496;9.098;2023-04-25T16:49:32;2.55;;;1.48;;
16624;SDS011;8426;48.496;9.098;2023-04-25T16:54:37;1.83;;;1.40;;
16624;SDS011;8426;48.496;9.098;2023-04-25T16:59:42;1.60;;;1.30;;
16624;SDS011;8426;48.496;9.098;2023-04-25T17:04:47;2.50;;;1.50;;
16624;SDS011;8426;48.496;9.098;2023-04-25T17:09:50;1.95;;;1.30;;
16624;SDS011;8426;48.496;9.098;2023-04-25T17:14:55;2.05;;;1.67;;
16624;SDS011;8426;48.496;9.098;2023-04-25T17:19:58;3.00;;;1.60;;
16624;SDS011;8426;48.496;9.098;2023-04-25T17:25:02;2.13;;;1.50;;
16624;SDS011;8426;48.496;9.098;2023-04-25T17:30:08;2.42;;;1.67;;
16624;SDS011;8426;48.496;9.098;2023-04-25T17:35:37;3.00;;;1.70;;
16624;SDS011;8426;48.496;9.098;2023-04-25T17:40:41;1.73;;;1.33;;
16624;SDS011;8426;48.496;9.098;2023-04-25T17:45:45;1.65;;;1.20;;
16624;SDS011;8426;48.496;9.098;2023-04-25T17:50:52;2.85;;;1.77;;
16624;SDS011;8426;48.496;9.098;2023-04-25T17:55:59;2.08;;;1.40;;
16624;SDS011;8426;48.496;9.098;2023-04-25T18:01:07;2.08;;;1.45;;
16624;SDS011;8426;48.496;9.098;2023-04-25T18:06:11;11.40;;;4.95;;
16624;SDS011;8426;48.496;9.098;2023-04-25T18:11:14;8.45;;;3.83;;
16624;SDS011;8426;48.496;9.098;2023-04-25T18:16:30;4.07;;;2.58;;
16624;SDS011;8426;48.496;9.098;2023-04-25T18:21:34;3.95;;;1.83;;
16624;SDS011;8426;48.496;9.098;2023-04-25T18:26:39;2.45;;;1.73;;
16624;SDS011;8426;48.496;9.098;2023-04-25T18:31:44;4.07;;;1.52;;
16624;SDS011;8426;48.496;9.098;2023-04-25T18:36:51;2.83;;;2.10;;
16624;SDS011;8426;48.496;9.098;2023-04-25T18:41:56;2.92;;;2.30;;
16624;SDS011;8426;48.496;9.098;2023-04-25T18:47:08;2.42;;;1.92;;
16624;SDS011;8426;48.496;9.098;2023-04-25T18:52:14;2.50;;;1.60;;
16624;SDS011;8426;48.496;9.098;2023-04-25T18:57:18;3.78;;;2.40;;
16624;SDS011;8426;48.496;9.098;2023-04-25T19:02:22;4.15;;;2.25;;
16624;SDS011;8426;48.496;9.098;2023-04-25T19:07:26;2.53;;;1.98;;
16624;SDS011;8426;48.496;9.098;2023-04-25T19:12:33;5.05;;;2.78;;
16624;SDS011;8426;48.496;9.098;2023-04-25T19:17:39;3.22;;;2.30;;
16624;SDS011;8426;48.496;9.098;2023-04-25T19:22:43;3.42;;;2.42;;
16624;SDS011;8426;48.496;9.098;2023-04-25T19:27:46;5.18;;;3.15;;
16624;SDS011;8426;48.496;9.098;2023-04-25T19:32:51;5.55;;;3.45;;
16624;SDS011;8426;48.496;9.098;2023-04-25T19:37:55;6.50;;;3.80;;
16624;SDS011;8426;48.496;9.098;2023-04-25T19:42:59;6.57;;;2.78;;
16624;SDS011;8426;48.496;9.098;2023-04-25T19:48:05;4.07;;;2.67;;
16624;SDS011;8426;48.496;9.098;2023-04-25T19:53:11;7.00;;;3.20;;
16624;SDS011;8426;48.496;9.098;2023-04-25T19:58:15;4.35;;;2.97;;
16624;SDS011;8426;48.496;9.098;2023-04-25T20:03:19;5.53;;;3.33;;
16624;SDS011;8426;48.496;9.098;2023-04-25T20:08:25;5.60;;;3.33;;
16624;SDS011;8426;48.496;9.098;2023-04-25T20:13:29;5.13;;;3.17;;
16624;SDS011;8426;48.496;9.098;2023-04-25T20:18:36;5.25;;;2.88;;
16624;SDS011;8426;48.496;9.098;2023-04-25T20:23:42;5.45;;;3.63;;
16624;SDS011;8426;48.496;9.098;2023-04-25T20:28:46;5.28;;;3.13;;
16624;SDS011;8426;48.496;9.098;2023-04-25T20:33:53;6.97;;;3.53;;
16624;SDS011;8426;48.496;9.098;2023-04-25T20:38:57;6.10;;;3.13;;
16624;SDS011;8426;48.496;9.098;2023-04-25T20:44:03;4.93;;;3.05;;
16624;SDS011;8426;48.496;9.098;2023-04-25T20:49:11;4.97;;;3.10;;
16624;SDS011;8426;48.496;9.098;2023-04-25T20:54:15;5.75;;;3.75;;
16624;SDS011;8426;48.496;9.098;2023-04-25T20:59:19;3.83;;;2.67;;
16624;SDS011;8426;48.496;9.098;2023-04-25T21:04:24;7.57;;;3.47;;
16624;SDS011;8426;48.496;9.098;2023-04-25T21:09:27;4.85;;;3.45;;
16624;SDS011;8426;48.496;9.098;2023-04-25T21:14:31;3.75;;;2.72;;
16624;SDS011;8426;48.496;9.098;2023-04-25T21:19:36;6.38;;;2.85;;
16624;SDS011;8426;48.496;9.098;2023-04-25T21:24:39;5.68;;;2.63;;
16624;SDS011;8426;48.496;9.098;2023-04-25T21:29:43;4.03;;;2.42;;
16624;SDS011;8426;48.496;9.098;2023-04-25T21:34:48;4.63;;;2.88;;
16624;SDS011;8426;48.496;9.098;2023-04-25T21:39:51;6.35;;;3.80;;
16624;SDS011;8426;48.496;9.098;2023-04-25T21:44:55;6.70;;;2.97;;
16624;SDS011;8426;48.496;9.098;2023-04-25T21:50:00;3.72;;;2.58;;
16624;SDS011;8426;48.496;9.098;2023-04-25T21:55:04;4.03;;;2.22;;
16624;SDS011;8426;48.496;9.098;2023-04-25T22:00:08;5.22;;;3.05;;
16624;SDS011;8426;48.496;9.098;2023-04-25T22:05:23;4.22;;;2.58;;
16624;SDS011;8426;48.496;9.098;2023-04-25T22:10:27;4.15;;;2.42;;
16624;SDS011;8426;48.496;9.098;2023-04-25T22:15:30;8.45;;;2.97;;
16624;SDS011;8426;48.496;9.098;2023-04-25T22:20:37;4.88;;;2.95;;
16624;SDS011;8426;48.496;9.098;2023-04-25T22:25:41;5.35;;;3.25;;
16624;SDS011;8426;48.496;9.098;2023-04-25T22:30:44;4.40;;;2.90;;
16624;SDS011;8426;48.496;9.098;2023-04-25T22:35:49;4.82;;;3.00;;
16624;SDS011;8426;48.496;9.098;2023-04-25T22:40:52;8.10;;;3.75;;
16624;SDS011;8426;48.496;9.098;2023-04-25T22:45:55;6.85;;;3.75;;
16624;SDS011;8426;48.496;9.098;2023-04-25T22:51:02;6.43;;;3.88;;
16624;SDS011;8426;48.496;9.098;2023-04-25T22:56:06;5.30;;;3.47;;
16624;SDS011;8426;48.496;9.098;2023-04-25T23:01:10;5.45;;;3.30;;
16624;SDS011;8426;48.496;9.098;2023-04-25T23:06:15;5.15;;;3.50;;
16624;SDS011;8426;48.496;9.098;2023-04-25T23:11:19;4.82;;;3.45;;
16624;SDS011;8426;48.496;9.098;2023-04-25T23:16:24;5.03;;;3.17;;
16624;SDS011;8426;48.496;9.098;2023-04-25T23:21:28;7.72;;;3.88;;
16624;SDS011;8426;48.496;9.098;2023-04-25T23:26:32;4.30;;;2.63;;
16624;SDS011;8426;48.496;9.098;2023-04-25T23:31:36;5.97;;;3.25;;
16624;SDS011;8426;48.496;9.098;2023-04-25T23:36:41;4.72;;;3.35;;
16624;SDS011;8426;48.496;9.098;2023-04-25T23:41:44;5.72;;;3.33;;
16624;SDS011;8426;48.496;9.098;2023-04-25T23:46:48;6.07;;;3.53;;
16624;SDS011;8426;48.496;9.098;2023-04-25T23:51:53;5.78;;;3.63;;
16624;SDS011;8426;48.496;9.098;2023-04-25T23:56:56;5.22;;;3.47;;
